Pagina principală
METAR-TAF:

METAR-TAF

Aeroporturi :

Gove Peninsula, Australia

Latitudine: 12-16-12S, longitudine: 136-49-06E, elevație: 62 m

Observații meteo curente

Raportul a fost făcut în urmă cu 34 de minute, la 15:30 UTC
Vânt 4 kt de la Sud-est
Temperatură 22°C
Umiditate 83%
Presiune 1015 hPa
Vizibilitate de 10 km sau mai mult

METAR: YPGV 251530Z AUTO 14004KT 9999 // NCD 22/19 Q1015 RF00.0/000.0

Ora: 01:34 (16:04 UTC)

Prognoză

Raportul a fost făcut în urmă cu 2 ore și 57 de minute, la 13:07 UTC
Prognoză valabilă de la 25 ora 14 UTC la 26 ora 02 UTC
Vânt 8 kt de la Sud-est
Vizibilitate de 10 km sau mai mult
Nori împrăștiați la o înălțime de 2000 picior
De la 26 ora 0000 UTC
Vânt 14 kt de la Est/Sud-est
Vizibilitate de 10 km sau mai mult
Nori puțini la o înălțime de 2000 picior

TAF: YPGV 251307Z 2514/2602 14008KT 9999 SCT020 FM260000 12014KT 9999 FEW020

Observații și prognoze meteo pentru peste 4.000 de aeroporturi (rapoarte METAR și TAF).

Stațiile disponibile sunt reprezentate pe hartă prin puncte galbene și roșii.

Țineți indicatorul mouse-ului pe punctul dorit pentru a vedea denumirea stației.

Apoi, faceți clic pentru a vedea observațiile și prognozele meteorologice.

Pentru a schimba harta: Pentru mărire, faceți clic pe butoanele verzi cu cruce neagră; pentru micșorare, pe butonul verde cu o liniuță; pentru hărți învecinate, pe săgețile verzi.


METAR-TAF: